sensor_id;sensor_type;location;lat;lon;timestamp;P1;durP1;ratioP1;P2;durP2;ratioP2
52590;SDS011;38483;42.620;25.394;2023-12-14T00:02:02;37.07;;;18.90;;
52590;SDS011;38483;42.620;25.394;2023-12-14T00:04:29;41.63;;;20.43;;
52590;SDS011;38483;42.620;25.394;2023-12-14T00:06:56;38.17;;;21.10;;
52590;SDS011;38483;42.620;25.394;2023-12-14T00:09:23;40.50;;;20.77;;
52590;SDS011;38483;42.620;25.394;2023-12-14T00:11:51;42.97;;;21.63;;
52590;SDS011;38483;42.620;25.394;2023-12-14T00:14:18;40.20;;;21.17;;
52590;SDS011;38483;42.620;25.394;2023-12-14T00:16:45;46.37;;;22.87;;
52590;SDS011;38483;42.620;25.394;2023-12-14T00:19:12;51.37;;;23.27;;
52590;SDS011;38483;42.620;25.394;2023-12-14T00:21:39;41.97;;;21.60;;
52590;SDS011;38483;42.620;25.394;2023-12-14T00:24:06;40.57;;;19.87;;
52590;SDS011;38483;42.620;25.394;2023-12-14T00:26:33;48.57;;;22.63;;
52590;SDS011;38483;42.620;25.394;2023-12-14T00:29:00;43.33;;;22.73;;
52590;SDS011;38483;42.620;25.394;2023-12-14T00:31:28;45.77;;;20.57;;
52590;SDS011;38483;42.620;25.394;2023-12-14T00:33:55;44.27;;;22.30;;
52590;SDS011;38483;42.620;25.394;2023-12-14T00:36:22;44.43;;;19.13;;
52590;SDS011;38483;42.620;25.394;2023-12-14T00:38:49;42.00;;;19.97;;
52590;SDS011;38483;42.620;25.394;2023-12-14T00:41:16;40.83;;;21.67;;
52590;SDS011;38483;42.620;25.394;2023-12-14T00:43:43;45.57;;;20.03;;
52590;SDS011;38483;42.620;25.394;2023-12-14T00:46:10;36.97;;;19.97;;
52590;SDS011;38483;42.620;25.394;2023-12-14T00:48:38;38.87;;;20.77;;
52590;SDS011;38483;42.620;25.394;2023-12-14T00:51:05;42.43;;;19.23;;
52590;SDS011;38483;42.620;25.394;2023-12-14T00:53:32;40.93;;;20.43;;
52590;SDS011;38483;42.620;25.394;2023-12-14T00:55:59;40.10;;;20.90;;
52590;SDS011;38483;42.620;25.394;2023-12-14T00:58:26;37.93;;;19.30;;
52590;SDS011;38483;42.620;25.394;2023-12-14T01:00:53;34.77;;;18.50;;
52590;SDS011;38483;42.620;25.394;2023-12-14T01:03:21;41.83;;;19.13;;
52590;SDS011;38483;42.620;25.394;2023-12-14T01:05:49;38.37;;;19.80;;
52590;SDS011;38483;42.620;25.394;2023-12-14T01:08:16;39.80;;;20.27;;
52590;SDS011;38483;42.620;25.394;2023-12-14T01:10:43;39.60;;;19.03;;
52590;SDS011;38483;42.620;25.394;2023-12-14T01:13:10;42.73;;;17.43;;
52590;SDS011;38483;42.620;25.394;2023-12-14T01:15:37;35.63;;;17.57;;
52590;SDS011;38483;42.620;25.394;2023-12-14T01:18:04;36.97;;;17.70;;
52590;SDS011;38483;42.620;25.394;2023-12-14T01:20:32;31.67;;;16.07;;
52590;SDS011;38483;42.620;25.394;2023-12-14T01:22:59;35.60;;;16.90;;
52590;SDS011;38483;42.620;25.394;2023-12-14T01:25:26;34.70;;;16.23;;
52590;SDS011;38483;42.620;25.394;2023-12-14T01:27:53;33.17;;;15.60;;
52590;SDS011;38483;42.620;25.394;2023-12-14T01:30:21;35.67;;;16.10;;
52590;SDS011;38483;42.620;25.394;2023-12-14T01:32:48;29.83;;;13.63;;
52590;SDS011;38483;42.620;25.394;2023-12-14T01:35:15;37.93;;;17.03;;
52590;SDS011;38483;42.620;25.394;2023-12-14T01:37:42;35.13;;;15.67;;
52590;SDS011;38483;42.620;25.394;2023-12-14T01:40:09;41.13;;;18.37;;
52590;SDS011;38483;42.620;25.394;2023-12-14T01:42:37;35.63;;;16.37;;
52590;SDS011;38483;42.620;25.394;2023-12-14T01:45:04;41.13;;;18.70;;
52590;SDS011;38483;42.620;25.394;2023-12-14T01:47:32;40.10;;;18.40;;
52590;SDS011;38483;42.620;25.394;2023-12-14T01:49:59;35.60;;;18.37;;
52590;SDS011;38483;42.620;25.394;2023-12-14T01:52:26;37.90;;;17.97;;
52590;SDS011;38483;42.620;25.394;2023-12-14T01:54:54;38.47;;;17.80;;
52590;SDS011;38483;42.620;25.394;2023-12-14T01:57:22;36.93;;;17.67;;
52590;SDS011;38483;42.620;25.394;2023-12-14T01:59:49;35.40;;;16.73;;
52590;SDS011;38483;42.620;25.394;2023-12-14T02:02:16;37.83;;;16.07;;
52590;SDS011;38483;42.620;25.394;2023-12-14T02:04:43;29.47;;;15.43;;
52590;SDS011;38483;42.620;25.394;2023-12-14T02:07:10;32.53;;;16.07;;
52590;SDS011;38483;42.620;25.394;2023-12-14T02:09:37;32.50;;;16.37;;
52590;SDS011;38483;42.620;25.394;2023-12-14T02:12:05;32.90;;;15.10;;
52590;SDS011;38483;42.620;25.394;2023-12-14T02:14:32;32.83;;;14.37;;
52590;SDS011;38483;42.620;25.394;2023-12-14T02:17:00;29.90;;;14.30;;
52590;SDS011;38483;42.620;25.394;2023-12-14T02:19:27;31.87;;;14.10;;
52590;SDS011;38483;42.620;25.394;2023-12-14T02:21:54;27.50;;;13.63;;
52590;SDS011;38483;42.620;25.394;2023-12-14T02:24:21;25.53;;;12.57;;
52590;SDS011;38483;42.620;25.394;2023-12-14T02:26:49;26.27;;;13.63;;
52590;SDS011;38483;42.620;25.394;2023-12-14T02:29:29;33.37;;;13.77;;
52590;SDS011;38483;42.620;25.394;2023-12-14T02:31:57;34.03;;;14.97;;
52590;SDS011;38483;42.620;25.394;2023-12-14T02:34:24;25.67;;;12.90;;
52590;SDS011;38483;42.620;25.394;2023-12-14T02:36:52;32.47;;;14.23;;
52590;SDS011;38483;42.620;25.394;2023-12-14T02:39:19;23.37;;;12.07;;
52590;SDS011;38483;42.620;25.394;2023-12-14T02:41:46;27.87;;;12.83;;
52590;SDS011;38483;42.620;25.394;2023-12-14T02:44:13;29.77;;;13.47;;
52590;SDS011;38483;42.620;25.394;2023-12-14T02:46:40;26.90;;;12.87;;
52590;SDS011;38483;42.620;25.394;2023-12-14T02:49:08;27.60;;;13.10;;
52590;SDS011;38483;42.620;25.394;2023-12-14T02:51:35;24.77;;;12.63;;
52590;SDS011;38483;42.620;25.394;2023-12-14T02:54:02;29.47;;;13.77;;
52590;SDS011;38483;42.620;25.394;2023-12-14T02:56:29;27.17;;;12.83;;
52590;SDS011;38483;42.620;25.394;2023-12-14T02:58:56;26.57;;;13.23;;
52590;SDS011;38483;42.620;25.394;2023-12-14T03:01:23;30.60;;;14.07;;
52590;SDS011;38483;42.620;25.394;2023-12-14T03:03:50;30.67;;;14.40;;
52590;SDS011;38483;42.620;25.394;2023-12-14T03:06:18;30.03;;;13.57;;
52590;SDS011;38483;42.620;25.394;2023-12-14T03:08:45;28.23;;;12.57;;
52590;SDS011;38483;42.620;25.394;2023-12-14T03:11:20;29.30;;;13.17;;
52590;SDS011;38483;42.620;25.394;2023-12-14T03:13:49;29.30;;;12.30;;
52590;SDS011;38483;42.620;25.394;2023-12-14T03:16:16;27.07;;;11.77;;
52590;SDS011;38483;42.620;25.394;2023-12-14T03:18:44;32.43;;;13.20;;
52590;SDS011;38483;42.620;25.394;2023-12-14T03:21:11;25.60;;;11.53;;
52590;SDS011;38483;42.620;25.394;2023-12-14T03:23:38;30.83;;;12.30;;
52590;SDS011;38483;42.620;25.394;2023-12-14T03:26:05;26.23;;;11.27;;
52590;SDS011;38483;42.620;25.394;2023-12-14T03:28:32;27.63;;;11.50;;
52590;SDS011;38483;42.620;25.394;2023-12-14T03:30:59;28.57;;;12.80;;
52590;SDS011;38483;42.620;25.394;2023-12-14T03:33:27;26.83;;;12.73;;
52590;SDS011;38483;42.620;25.394;2023-12-14T03:35:54;33.70;;;14.90;;
52590;SDS011;38483;42.620;25.394;2023-12-14T03:38:21;35.37;;;14.87;;
52590;SDS011;38483;42.620;25.394;2023-12-14T03:40:49;34.33;;;14.57;;
52590;SDS011;38483;42.620;25.394;2023-12-14T03:43:16;27.07;;;13.27;;
52590;SDS011;38483;42.620;25.394;2023-12-14T03:45:43;29.47;;;13.53;;
52590;SDS011;38483;42.620;25.394;2023-12-14T03:48:10;31.27;;;12.27;;
52590;SDS011;38483;42.620;25.394;2023-12-14T03:50:38;30.03;;;14.17;;
52590;SDS011;38483;42.620;25.394;2023-12-14T03:53:05;27.67;;;13.70;;
52590;SDS011;38483;42.620;25.394;2023-12-14T03:55:32;28.23;;;12.80;;
52590;SDS011;38483;42.620;25.394;2023-12-14T03:58:00;32.27;;;14.47;;
52590;SDS011;38483;42.620;25.394;2023-12-14T04:00:27;28.40;;;13.53;;
52590;SDS011;38483;42.620;25.394;2023-12-14T04:02:54;29.43;;;13.70;;
52590;SDS011;38483;42.620;25.394;2023-12-14T04:05:21;28.90;;;13.30;;
52590;SDS011;38483;42.620;25.394;2023-12-14T04:07:49;33.13;;;15.17;;
52590;SDS011;38483;42.620;25.394;2023-12-14T04:10:16;24.17;;;12.93;;
52590;SDS011;38483;42.620;25.394;2023-12-14T04:12:44;31.80;;;14.53;;
52590;SDS011;38483;42.620;25.394;2023-12-14T04:15:11;32.97;;;15.03;;
52590;SDS011;38483;42.620;25.394;2023-12-14T04:17:38;33.20;;;15.17;;
52590;SDS011;38483;42.620;25.394;2023-12-14T04:20:05;32.40;;;15.30;;
52590;SDS011;38483;42.620;25.394;2023-12-14T04:22:33;30.27;;;14.50;;
52590;SDS011;38483;42.620;25.394;2023-12-14T04:25:01;34.53;;;16.03;;
52590;SDS011;38483;42.620;25.394;2023-12-14T04:27:30;30.63;;;15.43;;
52590;SDS011;38483;42.620;25.394;2023-12-14T04:29:57;31.50;;;16.40;;
52590;SDS011;38483;42.620;25.394;2023-12-14T04:32:24;36.27;;;16.17;;
52590;SDS011;38483;42.620;25.394;2023-12-14T04:35:26;29.40;;;14.47;;
52590;SDS011;38483;42.620;25.394;2023-12-14T04:37:54;37.93;;;17.43;;
52590;SDS011;38483;42.620;25.394;2023-12-14T04:40:21;28.30;;;13.57;;
52590;SDS011;38483;42.620;25.394;2023-12-14T04:42:48;28.90;;;13.63;;
52590;SDS011;38483;42.620;25.394;2023-12-14T04:45:15;37.43;;;15.67;;
52590;SDS011;38483;42.620;25.394;2023-12-14T04:47:43;28.70;;;13.20;;
52590;SDS011;38483;42.620;25.394;2023-12-14T04:50:10;32.17;;;14.87;;
52590;SDS011;38483;42.620;25.394;2023-12-14T04:52:39;44.77;;;18.00;;
52590;SDS011;38483;42.620;25.394;2023-12-14T04:55:08;37.40;;;18.00;;
52590;SDS011;38483;42.620;25.394;2023-12-14T04:57:36;38.20;;;19.83;;
52590;SDS011;38483;42.620;25.394;2023-12-14T05:00:05;52.30;;;23.63;;
52590;SDS011;38483;42.620;25.394;2023-12-14T05:02:39;53.87;;;22.43;;
52590;SDS011;38483;42.620;25.394;2023-12-14T05:05:07;45.43;;;20.30;;
52590;SDS011;38483;42.620;25.394;2023-12-14T05:07:39;38.87;;;19.10;;
52590;SDS011;38483;42.620;25.394;2023-12-14T05:10:07;42.33;;;18.43;;
52590;SDS011;38483;42.620;25.394;2023-12-14T05:12:37;44.90;;;22.93;;
52590;SDS011;38483;42.620;25.394;2023-12-14T05:15:05;52.77;;;23.50;;
52590;SDS011;38483;42.620;25.394;2023-12-14T05:17:33;69.13;;;29.30;;
52590;SDS011;38483;42.620;25.394;2023-12-14T05:20:04;59.40;;;26.67;;
52590;SDS011;38483;42.620;25.394;2023-12-14T05:22:35;55.23;;;25.17;;
52590;SDS011;38483;42.620;25.394;2023-12-14T05:25:03;58.73;;;27.03;;
52590;SDS011;38483;42.620;25.394;2023-12-14T05:27:31;54.63;;;27.73;;
52590;SDS011;38483;42.620;25.394;2023-12-14T05:30:01;54.27;;;24.93;;
52590;SDS011;38483;42.620;25.394;2023-12-14T05:32:31;48.77;;;23.07;;
52590;SDS011;38483;42.620;25.394;2023-12-14T05:34:59;50.20;;;23.37;;
52590;SDS011;38483;42.620;25.394;2023-12-14T05:37:29;55.33;;;22.33;;
52590;SDS011;38483;42.620;25.394;2023-12-14T05:39:56;41.90;;;20.23;;
52590;SDS011;38483;42.620;25.394;2023-12-14T05:42:23;47.20;;;20.70;;
52590;SDS011;38483;42.620;25.394;2023-12-14T05:44:51;39.43;;;18.30;;
52590;SDS011;38483;42.620;25.394;2023-12-14T05:47:18;40.03;;;17.67;;
52590;SDS011;38483;42.620;25.394;2023-12-14T05:49:45;31.43;;;15.83;;
52590;SDS011;38483;42.620;25.394;2023-12-14T05:52:12;37.60;;;14.77;;
52590;SDS011;38483;42.620;25.394;2023-12-14T05:54:40;31.17;;;14.70;;
52590;SDS011;38483;42.620;25.394;2023-12-14T05:57:07;33.20;;;15.63;;
52590;SDS011;38483;42.620;25.394;2023-12-14T05:59:35;41.33;;;18.83;;
52590;SDS011;38483;42.620;25.394;2023-12-14T06:02:02;40.67;;;16.17;;
52590;SDS011;38483;42.620;25.394;2023-12-14T06:04:29;45.37;;;18.10;;
52590;SDS011;38483;42.620;25.394;2023-12-14T06:06:56;37.27;;;16.80;;
52590;SDS011;38483;42.620;25.394;2023-12-14T06:09:23;33.60;;;15.73;;
52590;SDS011;38483;42.620;25.394;2023-12-14T06:12:01;33.63;;;15.37;;
52590;SDS011;38483;42.620;25.394;2023-12-14T06:14:29;33.70;;;16.27;;
52590;SDS011;38483;42.620;25.394;2023-12-14T06:16:56;35.07;;;17.00;;
52590;SDS011;38483;42.620;25.394;2023-12-14T06:19:24;36.40;;;16.60;;
52590;SDS011;38483;42.620;25.394;2023-12-14T06:21:51;37.17;;;16.97;;
52590;SDS011;38483;42.620;25.394;2023-12-14T06:24:19;37.50;;;17.13;;
52590;SDS011;38483;42.620;25.394;2023-12-14T06:26:47;35.83;;;16.80;;
52590;SDS011;38483;42.620;25.394;2023-12-14T06:29:15;34.07;;;15.33;;
52590;SDS011;38483;42.620;25.394;2023-12-14T06:31:42;36.87;;;17.97;;
52590;SDS011;38483;42.620;25.394;2023-12-14T06:34:12;50.90;;;21.37;;
52590;SDS011;38483;42.620;25.394;2023-12-14T06:36:42;45.77;;;21.20;;
52590;SDS011;38483;42.620;25.394;2023-12-14T06:39:11;47.03;;;19.77;;
52590;SDS011;38483;42.620;25.394;2023-12-14T06:41:38;44.43;;;19.07;;
52590;SDS011;38483;42.620;25.394;2023-12-14T06:44:06;33.97;;;17.67;;
52590;SDS011;38483;42.620;25.394;2023-12-14T06:46:35;37.30;;;17.93;;
52590;SDS011;38483;42.620;25.394;2023-12-14T06:49:03;41.03;;;17.30;;
52590;SDS011;38483;42.620;25.394;2023-12-14T06:51:30;42.80;;;16.77;;
52590;SDS011;38483;42.620;25.394;2023-12-14T06:53:57;39.50;;;17.27;;
52590;SDS011;38483;42.620;25.394;2023-12-14T06:56:25;38.73;;;17.03;;
52590;SDS011;38483;42.620;25.394;2023-12-14T06:58:52;38.90;;;17.27;;
52590;SDS011;38483;42.620;25.394;2023-12-14T07:01:19;39.47;;;18.60;;
52590;SDS011;38483;42.620;25.394;2023-12-14T07:03:46;42.70;;;18.30;;
52590;SDS011;38483;42.620;25.394;2023-12-14T07:06:15;40.07;;;19.23;;
52590;SDS011;38483;42.620;25.394;2023-12-14T07:08:44;38.83;;;16.57;;
52590;SDS011;38483;42.620;25.394;2023-12-14T07:11:11;35.50;;;16.80;;
52590;SDS011;38483;42.620;25.394;2023-12-14T07:13:39;38.13;;;18.17;;
52590;SDS011;38483;42.620;25.394;2023-12-14T07:16:07;33.73;;;16.17;;
52590;SDS011;38483;42.620;25.394;2023-12-14T07:18:36;29.47;;;14.63;;
52590;SDS011;38483;42.620;25.394;2023-12-14T07:21:04;39.37;;;17.67;;
52590;SDS011;38483;42.620;25.394;2023-12-14T07:23:32;40.33;;;18.67;;
52590;SDS011;38483;42.620;25.394;2023-12-14T07:26:00;33.30;;;16.50;;
52590;SDS011;38483;42.620;25.394;2023-12-14T07:28:30;33.17;;;14.27;;
52590;SDS011;38483;42.620;25.394;2023-12-14T07:30:58;39.90;;;17.73;;
52590;SDS011;38483;42.620;25.394;2023-12-14T07:33:25;34.93;;;16.33;;
52590;SDS011;38483;42.620;25.394;2023-12-14T07:35:52;36.10;;;16.83;;
52590;SDS011;38483;42.620;25.394;2023-12-14T07:38:20;38.10;;;17.80;;
52590;SDS011;38483;42.620;25.394;2023-12-14T07:40:47;46.90;;;19.23;;
52590;SDS011;38483;42.620;25.394;2023-12-14T07:43:14;38.17;;;20.20;;
52590;SDS011;38483;42.620;25.394;2023-12-14T07:45:41;38.37;;;19.27;;
52590;SDS011;38483;42.620;25.394;2023-12-14T07:48:08;53.20;;;22.97;;
52590;SDS011;38483;42.620;25.394;2023-12-14T07:50:36;46.77;;;23.50;;
52590;SDS011;38483;42.620;25.394;2023-12-14T07:53:03;49.00;;;22.07;;
52590;SDS011;38483;42.620;25.394;2023-12-14T07:55:30;41.00;;;21.93;;
52590;SDS011;38483;42.620;25.394;2023-12-14T07:57:58;42.90;;;21.53;;
52590;SDS011;38483;42.620;25.394;2023-12-14T08:00:26;41.43;;;19.67;;
52590;SDS011;38483;42.620;25.394;2023-12-14T08:02:53;45.77;;;20.77;;
52590;SDS011;38483;42.620;25.394;2023-12-14T08:05:20;46.23;;;21.23;;
52590;SDS011;38483;42.620;25.394;2023-12-14T08:07:47;45.00;;;21.00;;
52590;SDS011;38483;42.620;25.394;2023-12-14T08:10:14;42.97;;;21.80;;
52590;SDS011;38483;42.620;25.394;2023-12-14T08:12:42;55.47;;;23.30;;
52590;SDS011;38483;42.620;25.394;2023-12-14T08:15:09;44.13;;;21.67;;
52590;SDS011;38483;42.620;25.394;2023-12-14T08:17:37;45.17;;;22.17;;
52590;SDS011;38483;42.620;25.394;2023-12-14T08:20:04;57.23;;;27.10;;
52590;SDS011;38483;42.620;25.394;2023-12-14T08:22:36;50.73;;;23.83;;
52590;SDS011;38483;42.620;25.394;2023-12-14T08:25:04;43.47;;;20.67;;
52590;SDS011;38483;42.620;25.394;2023-12-14T08:27:31;44.90;;;21.97;;
52590;SDS011;38483;42.620;25.394;2023-12-14T08:29:59;45.37;;;19.87;;
52590;SDS011;38483;42.620;25.394;2023-12-14T08:32:30;43.57;;;20.97;;
52590;SDS011;38483;42.620;25.394;2023-12-14T08:34:58;42.93;;;22.10;;
52590;SDS011;38483;42.620;25.394;2023-12-14T08:37:26;47.60;;;23.50;;
52590;SDS011;38483;42.620;25.394;2023-12-14T08:39:53;47.17;;;23.87;;
52590;SDS011;38483;42.620;25.394;2023-12-14T08:42:22;47.00;;;23.60;;
52590;SDS011;38483;42.620;25.394;2023-12-14T08:44:50;54.63;;;23.97;;
52590;SDS011;38483;42.620;25.394;2023-12-14T08:47:17;50.07;;;24.57;;
52590;SDS011;38483;42.620;25.394;2023-12-14T08:49:45;43.87;;;21.67;;
52590;SDS011;38483;42.620;25.394;2023-12-14T08:52:12;39.03;;;18.07;;
52590;SDS011;38483;42.620;25.394;2023-12-14T08:54:42;35.67;;;18.00;;
52590;SDS011;38483;42.620;25.394;2023-12-14T08:57:11;37.83;;;18.30;;
52590;SDS011;38483;42.620;25.394;2023-12-14T08:59:38;41.83;;;18.30;;
52590;SDS011;38483;42.620;25.394;2023-12-14T09:02:10;43.17;;;20.10;;
52590;SDS011;38483;42.620;25.394;2023-12-14T09:04:37;50.20;;;22.10;;
52590;SDS011;38483;42.620;25.394;2023-12-14T09:07:06;62.47;;;27.33;;
52590;SDS011;38483;42.620;25.394;2023-12-14T09:09:33;43.10;;;21.40;;
52590;SDS011;38483;42.620;25.394;2023-12-14T09:12:00;42.93;;;20.13;;
52590;SDS011;38483;42.620;25.394;2023-12-14T09:14:29;46.13;;;20.87;;
52590;SDS011;38483;42.620;25.394;2023-12-14T09:16:57;33.30;;;17.43;;
52590;SDS011;38483;42.620;25.394;2023-12-14T09:19:24;32.27;;;16.23;;
52590;SDS011;38483;42.620;25.394;2023-12-14T09:21:52;37.50;;;19.20;;
52590;SDS011;38483;42.620;25.394;2023-12-14T09:24:19;37.50;;;18.17;;
52590;SDS011;38483;42.620;25.394;2023-12-14T09:26:47;36.33;;;17.40;;
52590;SDS011;38483;42.620;25.394;2023-12-14T09:29:14;45.57;;;20.13;;
52590;SDS011;38483;42.620;25.394;2023-12-14T09:31:42;40.93;;;19.47;;
52590;SDS011;38483;42.620;25.394;2023-12-14T09:34:11;44.07;;;21.50;;
52590;SDS011;38483;42.620;25.394;2023-12-14T09:36:39;45.47;;;23.17;;
52590;SDS011;38483;42.620;25.394;2023-12-14T09:39:08;49.73;;;23.40;;
52590;SDS011;38483;42.620;25.394;2023-12-14T09:41:38;56.27;;;24.73;;
52590;SDS011;38483;42.620;25.394;2023-12-14T09:44:06;49.93;;;21.93;;
52590;SDS011;38483;42.620;25.394;2023-12-14T09:46:35;47.50;;;21.00;;
52590;SDS011;38483;42.620;25.394;2023-12-14T09:49:11;52.27;;;21.53;;
52590;SDS011;38483;42.620;25.394;2023-12-14T09:51:40;43.43;;;20.37;;
52590;SDS011;38483;42.620;25.394;2023-12-14T09:54:08;48.60;;;22.63;;
52590;SDS011;38483;42.620;25.394;2023-12-14T09:56:35;42.83;;;20.73;;
52590;SDS011;38483;42.620;25.394;2023-12-14T09:59:02;53.40;;;23.37;;
52590;SDS011;38483;42.620;25.394;2023-12-14T10:01:32;43.63;;;22.47;;
52590;SDS011;38483;42.620;25.394;2023-12-14T10:06:38;50.60;;;24.93;;
52590;SDS011;38483;42.620;25.394;2023-12-14T10:09:07;43.00;;;20.50;;
52590;SDS011;38483;42.620;25.394;2023-12-14T10:11:40;43.73;;;21.97;;
52590;SDS011;38483;42.620;25.394;2023-12-14T10:14:21;49.67;;;24.43;;
52590;SDS011;38483;42.620;25.394;2023-12-14T10:16:52;45.23;;;20.40;;
52590;SDS011;38483;42.620;25.394;2023-12-14T10:19:29;41.90;;;19.87;;
52590;SDS011;38483;42.620;25.394;2023-12-14T10:21:58;43.17;;;21.27;;
52590;SDS011;38483;42.620;25.394;2023-12-14T10:24:28;46.43;;;21.57;;
52590;SDS011;38483;42.620;25.394;2023-12-14T10:27:00;44.07;;;20.13;;
52590;SDS011;38483;42.620;25.394;2023-12-14T10:29:33;44.20;;;20.00;;
52590;SDS011;38483;42.620;25.394;2023-12-14T10:32:03;40.53;;;18.07;;
52590;SDS011;38483;42.620;25.394;2023-12-14T10:34:36;39.90;;;19.13;;
52590;SDS011;38483;42.620;25.394;2023-12-14T10:37:05;46.73;;;21.70;;
52590;SDS011;38483;42.620;25.394;2023-12-14T10:39:34;43.37;;;20.30;;
52590;SDS011;38483;42.620;25.394;2023-12-14T10:42:03;41.90;;;17.83;;
52590;SDS011;38483;42.620;25.394;2023-12-14T10:44:45;41.17;;;17.90;;
52590;SDS011;38483;42.620;25.394;2023-12-14T10:47:34;51.17;;;19.97;;
52590;SDS011;38483;42.620;25.394;2023-12-14T10:50:01;40.87;;;18.80;;
52590;SDS011;38483;42.620;25.394;2023-12-14T10:52:30;38.97;;;18.33;;
52590;SDS011;38483;42.620;25.394;2023-12-14T10:55:04;41.07;;;18.27;;
52590;SDS011;38483;42.620;25.394;2023-12-14T10:57:34;41.87;;;18.00;;
52590;SDS011;38483;42.620;25.394;2023-12-14T11:00:02;42.10;;;18.47;;
52590;SDS011;38483;42.620;25.394;2023-12-14T11:02:37;44.87;;;18.60;;
52590;SDS011;38483;42.620;25.394;2023-12-14T11:05:06;35.60;;;16.67;;
52590;SDS011;38483;42.620;25.394;2023-12-14T11:10:28;33.07;;;15.07;;
52590;SDS011;38483;42.620;25.394;2023-12-14T11:13:03;36.87;;;16.10;;
52590;SDS011;38483;42.620;25.394;2023-12-14T11:15:45;43.73;;;18.37;;
52590;SDS011;38483;42.620;25.394;2023-12-14T11:23:13;42.33;;;19.30;;
52590;SDS011;38483;42.620;25.394;2023-12-14T11:25:41;42.10;;;19.33;;
52590;SDS011;38483;42.620;25.394;2023-12-14T11:28:13;35.90;;;17.20;;
52590;SDS011;38483;42.620;25.394;2023-12-14T11:30:43;42.10;;;17.30;;
52590;SDS011;38483;42.620;25.394;2023-12-14T11:33:21;39.60;;;17.00;;
52590;SDS011;38483;42.620;25.394;2023-12-14T11:35:53;33.73;;;15.07;;
52590;SDS011;38483;42.620;25.394;2023-12-14T11:38:20;45.60;;;17.50;;
52590;SDS011;38483;42.620;25.394;2023-12-14T11:40:50;34.37;;;15.40;;
52590;SDS011;38483;42.620;25.394;2023-12-14T11:43:18;37.30;;;16.83;;
52590;SDS011;38483;42.620;25.394;2023-12-14T11:45:48;42.07;;;18.40;;
52590;SDS011;38483;42.620;25.394;2023-12-14T11:48:16;42.03;;;19.57;;
52590;SDS011;38483;42.620;25.394;2023-12-14T11:50:45;47.97;;;20.77;;
52590;SDS011;38483;42.620;25.394;2023-12-14T11:53:12;44.73;;;19.60;;
52590;SDS011;38483;42.620;25.394;2023-12-14T11:55:41;43.03;;;20.77;;
52590;SDS011;38483;42.620;25.394;2023-12-14T11:58:11;34.87;;;18.17;;
52590;SDS011;38483;42.620;25.394;2023-12-14T12:00:43;49.97;;;20.43;;
52590;SDS011;38483;42.620;25.394;2023-12-14T12:05:46;40.13;;;17.77;;
52590;SDS011;38483;42.620;25.394;2023-12-14T12:08:15;49.97;;;18.60;;
52590;SDS011;38483;42.620;25.394;2023-12-14T12:10:46;37.87;;;16.97;;
52590;SDS011;38483;42.620;25.394;2023-12-14T12:13:18;39.97;;;16.63;;
52590;SDS011;38483;42.620;25.394;2023-12-14T12:15:47;32.80;;;15.13;;
52590;SDS011;38483;42.620;25.394;2023-12-14T12:18:16;42.47;;;17.60;;
52590;SDS011;38483;42.620;25.394;2023-12-14T12:20:45;36.50;;;17.17;;
52590;SDS011;38483;42.620;25.394;2023-12-14T12:23:14;39.63;;;16.53;;
52590;SDS011;38483;42.620;25.394;2023-12-14T12:25:41;38.53;;;17.63;;
52590;SDS011;38483;42.620;25.394;2023-12-14T12:28:08;38.33;;;18.33;;
52590;SDS011;38483;42.620;25.394;2023-12-14T12:30:35;37.87;;;18.43;;
52590;SDS011;38483;42.620;25.394;2023-12-14T12:33:06;38.93;;;19.07;;
52590;SDS011;38483;42.620;25.394;2023-12-14T12:35:34;44.13;;;20.53;;
52590;SDS011;38483;42.620;25.394;2023-12-14T12:38:01;45.37;;;21.07;;
52590;SDS011;38483;42.620;25.394;2023-12-14T12:40:29;40.90;;;18.17;;
52590;SDS011;38483;42.620;25.394;2023-12-14T12:42:58;48.50;;;21.83;;
52590;SDS011;38483;42.620;25.394;2023-12-14T12:45:25;39.70;;;18.27;;
52590;SDS011;38483;42.620;25.394;2023-12-14T12:47:56;41.37;;;19.17;;
52590;SDS011;38483;42.620;25.394;2023-12-14T12:50:23;40.53;;;18.97;;
52590;SDS011;38483;42.620;25.394;2023-12-14T12:52:51;46.20;;;20.17;;
52590;SDS011;38483;42.620;25.394;2023-12-14T12:55:18;41.53;;;20.17;;
52590;SDS011;38483;42.620;25.394;2023-12-14T12:57:46;41.23;;;19.17;;
52590;SDS011;38483;42.620;25.394;2023-12-14T13:00:14;51.27;;;22.93;;
52590;SDS011;38483;42.620;25.394;2023-12-14T13:02:43;51.30;;;23.30;;
52590;SDS011;38483;42.620;25.394;2023-12-14T13:05:14;54.17;;;23.67;;
52590;SDS011;38483;42.620;25.394;2023-12-14T13:08:35;55.00;;;24.50;;
52590;SDS011;38483;42.620;25.394;2023-12-14T13:11:48;45.03;;;22.47;;
52590;SDS011;38483;42.620;25.394;2023-12-14T13:14:17;46.60;;;23.17;;
52590;SDS011;38483;42.620;25.394;2023-12-14T13:16:44;50.57;;;22.27;;
52590;SDS011;38483;42.620;25.394;2023-12-14T13:19:13;47.67;;;21.37;;
52590;SDS011;38483;42.620;25.394;2023-12-14T13:21:42;46.23;;;20.87;;
52590;SDS011;38483;42.620;25.394;2023-12-14T13:24:29;51.40;;;20.50;;
52590;SDS011;38483;42.620;25.394;2023-12-14T13:27:50;58.47;;;21.63;;
52590;SDS011;38483;42.620;25.394;2023-12-14T13:31:10;44.67;;;18.43;;
52590;SDS011;38483;42.620;25.394;2023-12-14T13:34:31;44.23;;;18.00;;
52590;SDS011;38483;42.620;25.394;2023-12-14T13:37:52;54.33;;;21.60;;
52590;SDS011;38483;42.620;25.394;2023-12-14T13:41:14;48.07;;;18.03;;
52590;SDS011;38483;42.620;25.394;2023-12-14T13:44:35;43.47;;;17.17;;
52590;SDS011;38483;42.620;25.394;2023-12-14T13:47:55;37.50;;;15.63;;
52590;SDS011;38483;42.620;25.394;2023-12-14T13:50:25;35.70;;;15.00;;
52590;SDS011;38483;42.620;25.394;2023-12-14T13:52:55;36.97;;;15.57;;
52590;SDS011;38483;42.620;25.394;2023-12-14T13:55:24;32.87;;;15.77;;
52590;SDS011;38483;42.620;25.394;2023-12-14T13:57:52;51.73;;;21.73;;
52590;SDS011;38483;42.620;25.394;2023-12-14T14:00:19;52.70;;;22.17;;
52590;SDS011;38483;42.620;25.394;2023-12-14T14:02:47;48.93;;;23.03;;
52590;SDS011;38483;42.620;25.394;2023-12-14T14:05:14;50.07;;;22.47;;
52590;SDS011;38483;42.620;25.394;2023-12-14T14:07:43;50.70;;;22.37;;
52590;SDS011;38483;42.620;25.394;2023-12-14T14:10:11;53.37;;;23.83;;
52590;SDS011;38483;42.620;25.394;2023-12-14T14:12:38;53.37;;;26.70;;
52590;SDS011;38483;42.620;25.394;2023-12-14T14:15:06;57.17;;;27.93;;
52590;SDS011;38483;42.620;25.394;2023-12-14T14:17:34;59.73;;;30.43;;
52590;SDS011;38483;42.620;25.394;2023-12-14T14:20:03;60.80;;;29.70;;
52590;SDS011;38483;42.620;25.394;2023-12-14T14:22:32;90.00;;;46.13;;
52590;SDS011;38483;42.620;25.394;2023-12-14T14:24:59;68.53;;;34.47;;
52590;SDS011;38483;42.620;25.394;2023-12-14T14:27:29;74.03;;;36.97;;
52590;SDS011;38483;42.620;25.394;2023-12-14T14:29:57;63.93;;;32.10;;
52590;SDS011;38483;42.620;25.394;2023-12-14T14:32:25;81.57;;;39.03;;
52590;SDS011;38483;42.620;25.394;2023-12-14T14:34:53;79.20;;;38.20;;
52590;SDS011;38483;42.620;25.394;2023-12-14T14:37:21;62.47;;;32.93;;